Angier, NC

1:51 PM EDT on September 19, 2014 (GMT -0400)
Tram Rd | Change Station
CLOSE
Current Station
Personal Weather Station
Location: Fuquay Varina, NC
Elevation: 315 ft
Nearby Weather Stations

Elev 315 ft 35.55 °N, 78.75 °W | Updated 1 second ago

Partly Cloudy
Partly Cloudy
80.8 °F
Feels Like 84 °F
N
0.7
Wind Variable Wind from East
Gusts 5.4 mph

Today
High -- | Low -- °F
--% Chance of Precip.
Yesterday
High -- | Low -- °F
Precip. -- in
7:00 AM 7:16 PM
Waning Crescent, 18% visible
Pressure 30.17 in
Visibility 10.0 miles
Clouds Overcast 11000 ft
Heat Index 84 °F
Dew Point 68 °F
Humidity 66%
Rainfall 0.00 in
Snow Depth Not available.
UV 0.0 out of 12
Pollen 5.90 out of 12
Ozone Good
PM2.5 Good
Flu Activity Not available.
METAR KHRJ 191735Z AUTO 13009G15KT 10SM OVC110 26/14 A3017 RMK AO2 T02580135

More Conditions Fewer Conditions

Pressure 30.17 in
Visibility 10.0 miles
Clouds Overcast 11000 ft
Heat Index 84 °F
Dew Point 68 °F
Humidity 66%
Rainfall 0.00 in
Snow Depth Not available.
UV 0.0 out of 12
Pollen 5.90 out of 12
Ozone Good
PM2.5 Good
Flu Activity Not available.
METAR KHRJ 191735Z AUTO 13009G15KT 10SM OVC110 26/14 A3017 RMK AO2 T02580135

More Conditions Fewer Conditions

10-Day Weather Forecast

Almanac

Astronomy

Sep. 19, 2014 Rise Set
Actual Time 7:00 AM EDT 7:16 PM EDT
Civil Twilight 6:35 AM EDT 7:41 PM EDT
Nautical Twilight 6:05 AM EDT 8:11 PM EDT
Astronomical Twilight 5:35 AM EDT 8:41 PM EDT
Moon 2:51 AM EDT 4:37 PM EDT
Length of Visible Light 13h 06m
Length of Day
12h 15m
Tomorrow will be 2m 12s shorter.
Waning Crescent, 18% of the Moon is Illuminated
Today
Waning Crescent
Sep 24
New
Oct 1
First Quarter
Oct 8
Full
Oct 15
Last Quarter

Today's Extremes

State Highs State Lows

Community

WunderPhotos

Upload Photos

1,754,668 photos uploaded!

Nearby

Air Quality

  Air Quality AQ Index Pollutant
Yesterday Good
OZONE
Yesterday Good
PM2.5
Current Good
OZONE
Current Good
PM2.5
Friday Good
PM2.5
Friday Good
OZONE
Saturday Good
PM2.5
Saturday Good
OZONE
Sunday Good
PM2.5
Sunday Good
OZONE

Snow Depth

Station Depth Elevation
No new snow has been reported.

Earthquake Activity

City Distance Mag. Time & Date
No recent earthquake activity has been reported nearby.
Minimum magnitude displayed is 2.5.

Coastal Water Temperatures

Place Temperature
No Stations Reporting

Nearby Weather Stations